Ceres, United Kingdom
Current Conditions -  °F | °C
As of 11:50 AM on Monday 20 Oct 2014 (Local Time) from EGQL Reporting Station
Scattered Clouds Scattered Clouds  
Wind Chill: 57°   Ceiling: Unl
Heat Index: 57°   Visibility: 6mi
Dew Point: 48°   Wind: 21mph
Humidity: 72%   Direction: 250°WSW
Pressure: 29.68"   Gusts: NA
Location:  56.29°N, 2.97°W
Report Text: EGQL 201050Z 25018KT 9999 FEW010 SCT020 14/09 Q1005 WHT
Loading
Personal Weather Stations






























Interactive Weather Map
Tropical Storm Tracking
New forecast layout! Learn more

10-Day Weather Forecast

Advertisements
Track Severe Weather on mobile